Airfield :
LOGIN :

Register | Disclaimer

   EN    FR    IT 

 










Legend :    VFR   Marginal VFR   IFR   Intensive IFR   Very Intensive IFR
Visi :
Ceiling :
>= 8 km
>= 3000ft
5 to 8 km
1000 to 3000 ft
1500m to 5 km
500 to 1000 ft
800 to 1500m
200 to 500 ft
< 800m
< 200 ft
Symbols :   Thunderstorms  Fog  Heavy snow  Heavy precipitations  Wind > 20 kt
SIGMETs :     Misc.  Thunderstorms  Icing  Turbulence  Mountain Waves  Volcanic Ashes







- Airport Elevation : 230 ft


ETHB - Buckeburg Army

CURRENT METAR :
  • 181446Z 27005KT 9999 FEW005 SCT010 BKN017 18/16 Q1005 WHT

EXPIRED METARs :
  • 181420Z 30003KT 9999 FEW004 BKN010 17/16 Q1005 GRN
  • 181320Z 10001KT 9999 -RADZ FEW003 SCT015 BKN090 16/15 Q1005 RERA BLU
  • 181310Z VRB01KT 7000 RADZ SCT003 BKN015 BKN090 16/15 Q1004 REDZ WHT
  • 181246Z 06002KT 5000 -DZRA FEW005 BKN008 16/15 Q1005 REDZ GRN
  • 181237Z 32005KT 2500 DZRA FEW005 BKN007 16/15 Q1005 YLO
  • 181220Z 34003KT 4500 -DZRA FEW005 BKN007 16/15 Q1005 REDZ GRN

Expired Forecast.
No reported NOTAMs for that airfield.



MET'MAP, your aeronautical weather chart ! - Copyright ORBIFLY December 2007 - Disclaimer

ORBIFLY MET'MAP TEAM :

Programming & Development : Alexandra Zaïnal
Concept & Development : Baudouin d'Aumeries
Co-Development & Prog : Marc-Olivier Méhu
Technical & hardware support : Manuel Goepfert

Contact : metmap@orbifly.com




SOURCES & CREDITS :

   NOAA